createdAt,value
2023-04-28T00:02:42.875Z,99444.87
2023-04-28T00:05:48.746Z,99442.77
2023-04-28T00:08:54.557Z,99448.78
2023-04-28T00:12:00.477Z,99453.75
2023-04-28T00:15:05.821Z,99451.63
2023-04-28T00:18:11.302Z,99462.52
2023-04-28T00:21:16.527Z,99457.03
2023-04-28T00:24:22.690Z,99455.88
2023-04-28T00:27:28.072Z,99447.22
2023-04-28T00:30:34.658Z,99450.50
2023-04-28T00:33:40.472Z,99451.34
2023-04-28T00:36:45.437Z,99458.52
2023-04-28T00:39:52.697Z,99460.72
2023-04-28T00:42:58.710Z,99469.81
2023-04-28T00:46:04.817Z,99473.50
2023-04-28T00:49:10.665Z,99472.86
2023-04-28T00:52:22.224Z,99475.94
2023-04-28T00:55:26.927Z,99484.70
2023-04-28T00:58:32.841Z,99482.89
2023-04-28T01:01:37.884Z,99481.75
2023-04-28T01:04:43.300Z,99488.19
2023-04-28T01:07:49.182Z,99489.87
2023-04-28T01:10:53.790Z,99489.25
2023-04-28T01:14:01.350Z,99485.11
2023-04-28T01:17:09.840Z,99480.79
2023-04-28T01:20:15.789Z,99482.16
2023-04-28T01:23:21.045Z,99487.55
2023-04-28T01:26:26.375Z,99490.93
2023-04-28T01:29:32.550Z,99493.57
2023-04-28T01:32:40.402Z,99490.09
2023-04-28T01:35:45.537Z,99500.73
2023-04-28T01:38:50.778Z,99518.59
2023-04-28T01:41:56.697Z,99526.17
2023-04-28T01:45:03.021Z,99524.70
2023-04-28T01:48:09.258Z,99520.68
2023-04-28T01:51:14.826Z,99520.89
2023-04-28T01:54:20.039Z,99518.68
2023-04-28T01:57:24.750Z,99518.56
2023-04-28T02:00:31.198Z,99517.29
2023-04-28T02:03:37.774Z,99519.96
2023-04-28T02:06:36.833Z,99517.43
2023-04-28T02:09:43.183Z,99514.13
2023-04-28T02:12:49.980Z,99515.50
2023-04-28T02:15:56.592Z,99503.69
2023-04-28T02:19:01.948Z,99507.39
2023-04-28T02:22:07.186Z,99506.96
2023-04-28T02:25:12.459Z,99506.94
2023-04-28T02:28:17.692Z,99502.95
2023-04-28T02:31:24.428Z,99497.05
2023-04-28T02:34:29.893Z,99488.29
2023-04-28T02:37:35.341Z,99485.75
2023-04-28T02:40:41.194Z,99489.44
2023-04-28T02:43:46.480Z,99482.58
2023-04-28T02:46:53.134Z,99481.30
2023-04-28T02:49:59.000Z,99487.73
2023-04-28T02:53:04.502Z,99486.39
2023-04-28T02:56:11.336Z,99481.43
2023-04-28T02:59:16.445Z,99491.03
2023-04-28T03:02:23.247Z,99486.17
2023-04-28T03:05:29.567Z,99477.31
2023-04-28T03:08:34.731Z,99478.67
2023-04-28T03:11:40.612Z,99485.09
2023-04-28T03:14:46.318Z,99472.12
2023-04-28T03:17:52.633Z,99474.34
2023-04-28T03:20:57.490Z,99472.98
2023-04-28T03:24:05.275Z,99466.43
2023-04-28T03:27:10.285Z,99454.70
2023-04-28T03:30:17.122Z,99450.08
2023-04-28T03:33:15.059Z,99451.76
2023-04-28T03:36:08.207Z,99456.94
2023-04-28T03:39:07.393Z,99453.97
2023-04-28T03:42:12.789Z,99459.78
2023-04-28T03:45:30.202Z,99462.30
2023-04-28T03:48:35.990Z,99460.63
2023-04-28T03:51:40.754Z,99452.61
2023-04-28T03:54:45.662Z,99447.33
2023-04-28T03:57:51.199Z,99438.25
2023-04-28T04:00:57.043Z,99444.58
2023-04-28T04:04:03.166Z,99436.79
2023-04-28T04:07:09.322Z,99443.43
2023-04-28T04:10:14.525Z,99439.83
2023-04-28T04:13:20.407Z,99447.85
2023-04-28T04:16:29.209Z,99464.64
2023-04-28T04:19:22.017Z,99463.89
2023-04-28T04:22:27.526Z,99469.91
2023-04-28T04:25:33.112Z,99482.34
2023-04-28T04:28:40.042Z,99485.22
2023-04-28T04:31:46.253Z,99484.17
2023-04-28T04:34:54.028Z,99479.20
2023-04-28T04:37:59.142Z,99483.97
2023-04-28T04:41:04.696Z,99491.56
2023-04-28T04:44:14.109Z,99493.34
2023-04-28T04:47:18.779Z,99501.48
2023-04-28T04:50:25.530Z,99503.50
2023-04-28T04:53:30.867Z,99498.30
2023-04-28T04:56:36.216Z,99496.95
2023-04-28T04:59:42.698Z,99503.19
2023-04-28T05:02:50.437Z,99505.27
2023-04-28T05:05:56.519Z,99502.31
2023-04-28T05:09:05.597Z,99504.64
2023-04-28T05:12:11.106Z,99511.28
2023-04-28T05:15:19.606Z,99516.89
2023-04-28T05:18:26.611Z,99512.47
2023-04-28T05:21:32.217Z,99514.66
2023-04-28T05:24:39.397Z,99521.22
2023-04-28T05:27:46.396Z,99520.79
2023-04-28T05:30:51.921Z,99530.55
2023-04-28T05:33:58.930Z,99530.10
2023-04-28T05:36:57.414Z,99538.78
2023-04-28T05:39:51.455Z,99540.05
2023-04-28T05:42:58.348Z,99533.17
2023-04-28T05:46:04.031Z,99530.54
2023-04-28T05:49:10.205Z,99536.66
2023-04-28T05:52:15.239Z,99542.58
2023-04-28T05:55:21.576Z,99539.94
2023-04-28T05:58:19.429Z,99540.42
2023-04-28T06:01:24.535Z,99541.09
2023-04-28T06:04:30.788Z,99537.17
2023-04-28T06:07:36.022Z,99528.21
2023-04-28T06:10:41.527Z,99539.92
2023-04-28T06:13:46.745Z,99535.05
2023-04-28T06:16:52.086Z,99542.58
2023-04-28T06:19:57.915Z,99543.11
2023-04-28T06:23:03.976Z,99559.59
2023-04-28T06:26:11.698Z,99570.52
2023-04-28T06:29:18.235Z,99574.97
2023-04-28T06:32:24.395Z,99572.95
2023-04-28T06:35:31.123Z,99566.94
2023-04-28T06:38:37.741Z,99565.56
2023-04-28T06:41:44.176Z,99569.89
2023-04-28T06:44:50.863Z,99565.45
2023-04-28T06:47:58.837Z,99570.64
2023-04-28T06:51:03.659Z,99566.56
2023-04-28T06:54:09.243Z,99587.05
2023-04-28T06:57:14.991Z,99582.80
2023-04-28T07:00:21.247Z,99583.14
2023-04-28T07:03:26.276Z,99579.21
2023-04-28T07:06:34.355Z,99581.56
2023-04-28T07:09:39.296Z,99577.54
2023-04-28T07:12:44.510Z,99582.04
2023-04-28T07:15:49.695Z,99577.56
2023-04-28T07:18:55.633Z,99581.84
2023-04-28T07:22:02.584Z,99575.05
2023-04-28T07:25:07.858Z,99566.80
2023-04-28T07:28:13.176Z,99554.56
2023-04-28T07:31:18.680Z,99555.74
2023-04-28T07:34:24.900Z,99539.67
2023-04-28T07:37:31.200Z,99540.16
2023-04-28T07:40:37.032Z,99535.36
2023-04-28T07:43:42.917Z,99535.09
2023-04-28T07:46:50.318Z,99545.90
2023-04-28T07:49:55.433Z,99544.00
2023-04-28T07:53:01.001Z,99538.73
2023-04-28T07:56:07.618Z,99547.64
2023-04-28T07:59:12.816Z,99541.52
2023-04-28T08:02:19.729Z,99542.52
2023-04-28T08:05:25.913Z,99540.84
2023-04-28T08:08:32.315Z,99540.51
2023-04-28T08:11:37.811Z,99548.27
2023-04-28T08:14:43.701Z,99541.69
2023-04-28T08:17:49.468Z,99534.73
2023-04-28T08:20:55.525Z,99527.55
2023-04-28T08:24:00.391Z,99521.27
2023-04-28T08:27:06.789Z,99541.66
2023-04-28T08:30:11.896Z,99531.51
2023-04-28T08:33:17.261Z,99537.23
2023-04-28T08:36:26.037Z,99528.14
2023-04-28T08:39:33.712Z,99530.98
2023-04-28T08:42:38.540Z,99526.20
2023-04-28T08:45:44.655Z,99520.84
2023-04-28T08:48:58.132Z,99512.52
2023-04-28T08:52:11.072Z,99516.11
2023-04-28T08:55:20.657Z,99505.84
2023-04-28T08:58:26.272Z,99517.16
2023-04-28T09:01:31.280Z,99502.92
2023-04-28T09:04:38.138Z,99504.63
2023-04-28T09:07:43.700Z,99511.83
2023-04-28T09:10:48.901Z,99499.27
2023-04-28T09:13:48.793Z,99512.09
2023-04-28T09:16:50.747Z,99503.30
2023-04-28T09:19:55.883Z,99504.84
2023-04-28T09:23:02.101Z,99499.89
2023-04-28T09:26:19.231Z,99508.89
2023-04-28T09:29:28.117Z,99497.53
2023-04-28T09:32:37.410Z,99499.13
2023-04-28T09:35:55.928Z,99497.73
2023-04-28T09:39:00.595Z,99499.55
2023-04-28T09:42:10.144Z,99506.97
2023-04-28T09:45:22.178Z,99508.16
2023-04-28T09:48:26.503Z,99516.88
2023-04-28T09:51:35.386Z,99500.50
2023-04-28T09:54:40.976Z,99502.64
2023-04-28T09:57:50.083Z,99504.20
2023-04-28T10:00:56.055Z,99489.66
2023-04-28T10:04:02.069Z,99485.84
2023-04-28T10:07:08.257Z,99489.05
2023-04-28T10:10:13.309Z,99494.62
2023-04-28T10:13:18.661Z,99494.80
2023-04-28T10:16:24.212Z,99497.28
2023-04-28T10:19:30.154Z,99495.70
2023-04-28T10:23:27.601Z,99506.48
2023-04-28T10:26:32.487Z,99498.27
2023-04-28T10:29:40.653Z,99501.59
2023-04-28T10:32:46.279Z,99496.48
2023-04-28T10:35:57.166Z,99509.82
2023-04-28T10:39:26.220Z,99503.31
2023-04-28T10:43:10.002Z,99509.39
2023-04-28T10:46:17.567Z,99492.00
2023-04-28T10:49:23.972Z,99501.52
2023-04-28T10:52:53.842Z,99498.72
2023-04-28T10:55:59.905Z,99499.78
2023-04-28T10:59:08.492Z,99493.16
2023-04-28T11:02:18.107Z,99509.99
2023-04-28T11:05:26.972Z,99484.16
2023-04-28T11:08:46.224Z,99478.69
2023-04-28T11:11:51.941Z,99469.17
2023-04-28T11:14:58.283Z,99479.59
2023-04-28T11:18:03.203Z,99475.45
2023-04-28T11:21:08.879Z,99470.72
2023-04-28T11:24:13.853Z,99455.42
2023-04-28T11:27:19.291Z,99452.55
2023-04-28T11:30:38.226Z,99440.91
2023-04-28T11:33:45.120Z,99441.84
2023-04-28T11:36:54.909Z,99435.63
2023-04-28T11:40:01.281Z,99451.94
2023-04-28T11:43:08.029Z,99454.39
2023-04-28T11:46:13.220Z,99454.16
2023-04-28T11:49:22.470Z,99456.61
2023-04-28T11:52:28.198Z,99438.27
2023-04-28T11:55:38.231Z,99448.84
2023-04-28T11:58:41.990Z,99445.17
2023-04-28T12:01:48.451Z,99442.53
2023-04-28T12:04:57.518Z,99441.18
2023-04-28T12:08:03.465Z,99417.42
2023-04-28T12:11:25.938Z,99427.47
2023-04-28T12:14:32.556Z,99423.44
2023-04-28T12:17:57.684Z,99419.35
2023-04-28T12:21:02.602Z,99415.88
2023-04-28T12:24:08.363Z,99424.00
2023-04-28T12:27:36.722Z,99420.86
2023-04-28T12:30:48.656Z,99421.27
2023-04-28T12:33:53.606Z,99429.81
2023-04-28T12:36:58.940Z,99436.14
2023-04-28T12:40:04.571Z,99432.86
2023-04-28T12:43:10.027Z,99449.33
2023-04-28T12:46:16.167Z,99430.55
2023-04-28T12:49:22.881Z,99436.34
2023-04-28T12:52:27.594Z,99428.98
2023-04-28T12:55:32.580Z,99427.08
2023-04-28T12:58:37.950Z,99418.73
2023-04-28T13:01:42.879Z,99423.59
2023-04-28T13:04:50.750Z,99425.48
2023-04-28T13:07:57.881Z,99414.95
2023-04-28T13:11:07.330Z,99429.71
2023-04-28T13:14:11.025Z,99417.16
2023-04-28T13:17:18.528Z,99423.92
2023-04-28T13:20:24.503Z,99432.02
2023-04-28T13:23:30.454Z,99430.88
2023-04-28T13:26:37.579Z,99439.07
2023-04-28T13:29:43.307Z,99431.16
2023-04-28T13:32:49.648Z,99434.77
2023-04-28T13:35:55.604Z,99436.56
2023-04-28T13:39:02.458Z,99447.84
2023-04-28T13:42:08.972Z,99446.48
2023-04-28T13:45:16.248Z,99452.82
2023-04-28T13:48:21.220Z,99466.42
2023-04-28T13:51:26.799Z,99445.55
2023-04-28T13:54:33.037Z,99448.80
2023-04-28T13:57:38.303Z,99435.71
2023-04-28T14:00:44.859Z,99450.48
2023-04-28T14:03:51.843Z,99455.77
2023-04-28T14:06:59.089Z,99454.39
2023-04-28T14:09:59.074Z,99453.78
2023-04-28T14:13:04.931Z,99458.41
2023-04-28T14:16:10.572Z,99454.70
2023-04-28T14:19:19.734Z,99453.95
2023-04-28T14:22:25.474Z,99444.05
2023-04-28T14:25:35.349Z,99438.69
2023-04-28T14:28:36.021Z,99436.56
2023-04-28T14:31:45.190Z,99441.31
2023-04-28T14:34:50.510Z,99437.10
2023-04-28T14:37:56.800Z,99452.81
2023-04-28T14:41:02.252Z,99457.88
2023-04-28T14:44:08.057Z,99453.77
2023-04-28T14:47:13.647Z,99448.59
2023-04-28T14:50:20.836Z,99443.12
2023-04-28T14:53:25.540Z,99445.11
2023-04-28T14:56:33.387Z,99445.30
2023-04-28T14:59:40.750Z,99432.33
2023-04-28T15:02:47.046Z,99444.05
2023-04-28T15:05:53.241Z,99417.14
2023-04-28T15:08:59.624Z,99422.73
2023-04-28T15:12:05.841Z,99441.62
2023-04-28T15:15:11.506Z,99446.77
2023-04-28T15:18:17.030Z,99443.95
2023-04-28T15:21:22.614Z,99453.64
2023-04-28T15:24:29.934Z,99457.98
2023-04-28T15:27:35.357Z,99451.31
2023-04-28T15:30:34.884Z,99452.78
2023-04-28T15:33:28.172Z,99444.78
2023-04-28T15:36:35.238Z,99442.84
2023-04-28T15:39:40.301Z,99442.34
2023-04-28T15:42:45.512Z,99460.14
2023-04-28T15:45:51.942Z,99450.02
2023-04-28T15:48:57.595Z,99465.66
2023-04-28T15:52:01.976Z,99463.13
2023-04-28T15:55:08.803Z,99452.58
2023-04-28T15:58:16.123Z,99448.33
2023-04-28T16:01:23.254Z,99453.23
2023-04-28T16:04:29.668Z,99465.95
2023-04-28T16:07:38.394Z,99470.27
2023-04-28T16:10:46.236Z,99473.41
2023-04-28T16:13:51.085Z,99470.52
2023-04-28T16:16:59.008Z,99466.33
2023-04-28T16:20:05.086Z,99464.44
2023-04-28T16:23:11.104Z,99468.52
2023-04-28T16:26:17.873Z,99480.16
2023-04-28T16:29:24.334Z,99482.42
2023-04-28T16:32:31.665Z,99481.91
2023-04-28T16:35:37.328Z,99477.56
2023-04-28T16:38:46.160Z,99476.20
2023-04-28T16:41:51.898Z,99470.33
2023-04-28T16:44:58.627Z,99493.04
2023-04-28T16:48:04.927Z,99486.44
2023-04-28T16:51:12.009Z,99476.77
2023-04-28T16:54:18.570Z,99473.78
2023-04-28T16:57:24.161Z,99481.43
2023-04-28T17:00:30.506Z,99491.39
2023-04-28T17:03:36.772Z,99470.55
2023-04-28T17:06:44.151Z,99502.93
2023-04-28T17:09:51.192Z,99485.39
2023-04-28T17:12:57.572Z,99477.15
2023-04-28T17:16:11.201Z,99484.34
2023-04-28T17:19:16.526Z,99493.60
2023-04-28T17:22:22.235Z,99499.39
2023-04-28T17:25:28.192Z,99504.51
2023-04-28T17:28:28.181Z,99498.78
2023-04-28T17:31:36.865Z,99503.77
2023-04-28T17:34:41.393Z,99512.46
2023-04-28T17:37:48.589Z,99503.84
2023-04-28T17:40:55.595Z,99505.94
2023-04-28T17:44:00.457Z,99509.54
2023-04-28T17:47:08.157Z,99510.64
2023-04-28T17:50:13.738Z,99520.65
2023-04-28T17:53:19.472Z,99524.67
2023-04-28T17:56:26.864Z,99527.34
2023-04-28T17:59:33.501Z,99525.59
2023-04-28T18:02:40.660Z,99529.37
2023-04-28T18:05:46.538Z,99530.33
2023-04-28T18:08:52.459Z,99530.33
2023-04-28T18:12:00.065Z,99530.08
2023-04-28T18:15:06.489Z,99534.16
2023-04-28T18:18:11.781Z,99538.31
2023-04-28T18:21:16.816Z,99543.92
2023-04-28T18:24:22.340Z,99557.14
2023-04-28T18:27:28.206Z,99545.88
2023-04-28T18:30:36.203Z,99548.61
2023-04-28T18:33:42.193Z,99549.52
2023-04-28T18:36:49.239Z,99560.92
2023-04-28T18:39:55.641Z,99544.30
2023-04-28T18:43:01.823Z,99545.09
2023-04-28T18:46:10.652Z,99545.86
2023-04-28T18:49:17.440Z,99544.91
2023-04-28T18:52:23.012Z,99552.84
2023-04-28T18:55:30.064Z,99545.08
2023-04-28T18:58:35.869Z,99540.98
2023-04-28T19:01:42.298Z,99543.83
2023-04-28T19:04:49.457Z,99539.55
2023-04-28T19:07:56.269Z,99549.82
2023-04-28T19:11:03.039Z,99550.14
2023-04-28T19:14:08.430Z,99536.94
2023-04-28T19:17:13.756Z,99547.87
2023-04-28T19:20:20.095Z,99542.80
2023-04-28T19:23:25.775Z,99548.56
2023-04-28T19:26:25.026Z,99551.37
2023-04-28T19:29:29.843Z,99550.92
2023-04-28T19:32:35.177Z,99550.45
2023-04-28T19:35:40.813Z,99554.83
2023-04-28T19:38:47.387Z,99561.95
2023-04-28T19:41:54.684Z,99557.39
2023-04-28T19:44:53.315Z,99558.06
2023-04-28T19:48:02.279Z,99551.55
2023-04-28T19:51:08.253Z,99550.39
2023-04-28T19:54:14.564Z,99553.77
2023-04-28T19:57:19.954Z,99563.80
2023-04-28T20:00:29.873Z,99559.34
2023-04-28T20:03:36.405Z,99546.34
2023-04-28T20:06:42.184Z,99551.66
2023-04-28T20:09:49.236Z,99549.44
2023-04-28T20:12:56.157Z,99556.52
2023-04-28T20:16:01.716Z,99552.32
2023-04-28T20:19:07.399Z,99546.06
2023-04-28T20:22:12.737Z,99542.84
2023-04-28T20:25:19.403Z,99546.78
2023-04-28T20:28:25.191Z,99547.83
2023-04-28T20:31:30.435Z,99536.05
2023-04-28T20:34:36.059Z,99538.95
2023-04-28T20:37:41.479Z,99543.50
2023-04-28T20:40:47.354Z,99558.12
2023-04-28T20:43:54.189Z,99547.14
2023-04-28T20:47:00.897Z,99548.38
2023-04-28T20:50:07.620Z,99561.03
2023-04-28T20:53:12.762Z,99544.20
2023-04-28T20:56:17.575Z,99556.98
2023-04-28T20:59:22.695Z,99561.59
2023-04-28T21:02:29.048Z,99558.42
2023-04-28T21:05:34.716Z,99558.07
2023-04-28T21:08:40.548Z,99562.05
2023-04-28T21:11:46.270Z,99560.28
2023-04-28T21:14:52.964Z,99563.78
2023-04-28T21:17:59.805Z,99565.19
2023-04-28T21:21:05.190Z,99563.94
2023-04-28T21:24:03.860Z,99565.70
2023-04-28T21:26:56.142Z,99569.67
2023-04-28T21:30:01.565Z,99568.20
2023-04-28T21:33:07.296Z,99573.61
2023-04-28T21:36:15.943Z,99573.09
2023-04-28T21:39:20.955Z,99562.84
2023-04-28T21:42:27.071Z,99561.33
2023-04-28T21:45:19.431Z,99550.92
2023-04-28T21:48:25.495Z,99558.34
2023-04-28T21:51:30.749Z,99551.35
2023-04-28T21:54:36.254Z,99557.26
2023-04-28T21:57:41.750Z,99547.33
2023-04-28T22:00:56.606Z,99554.63
2023-04-28T22:04:01.672Z,99559.05
2023-04-28T22:07:08.263Z,99543.60
2023-04-28T22:10:14.600Z,99551.23
2023-04-28T22:13:19.916Z,99552.81
2023-04-28T22:16:26.300Z,99547.50
2023-04-28T22:19:25.963Z,99543.20
2023-04-28T22:22:26.059Z,99538.31
2023-04-28T22:25:32.166Z,99542.04
2023-04-28T22:28:37.011Z,99551.80
2023-04-28T22:31:42.680Z,99545.41
2023-04-28T22:34:48.912Z,99557.22
2023-04-28T22:37:47.907Z,99552.14
2023-04-28T22:40:40.034Z,99556.34
2023-04-28T22:43:45.304Z,99550.48
2023-04-28T22:46:51.908Z,99550.56
2023-04-28T22:49:57.631Z,99547.50
2023-04-28T22:53:03.955Z,99540.72
2023-04-28T22:56:09.422Z,99542.94
2023-04-28T22:59:16.150Z,99527.53
2023-04-28T23:02:21.770Z,99523.29
2023-04-28T23:05:28.573Z,99523.59
2023-04-28T23:08:35.274Z,99511.70
2023-04-28T23:11:41.432Z,99511.92
2023-04-28T23:14:46.498Z,99513.29
2023-04-28T23:17:52.764Z,99517.55
2023-04-28T23:21:00.289Z,99540.13
2023-04-28T23:24:06.157Z,99540.82
2023-04-28T23:27:12.216Z,99542.48
2023-04-28T23:30:18.376Z,99527.41
2023-04-28T23:33:23.396Z,99532.78
2023-04-28T23:36:28.636Z,99534.67
2023-04-28T23:39:35.501Z,99531.48
2023-04-28T23:42:40.418Z,99538.25
2023-04-28T23:45:45.410Z,99537.70
2023-04-28T23:48:50.225Z,99538.30
2023-04-28T23:51:56.190Z,99538.78
2023-04-28T23:55:02.199Z,99537.13
2023-04-28T23:58:06.990Z,99537.70
